Time;durP1;ratioP1;P1;durP2;ratioP2;P2;SDS_P1;SDS_P2;PMS_P1;PMS_P2;Temp;Humidity;BMP_temperature;BMP_pressure;BME280_temperature;BME280_humidity;BME280_pressure;Samples;Min_cycle;Max_cycle;Signal;HPM_P1;HPM_P2
2022/03/25 00:02:13;;;;;;;23.80;19.08;;;;;;;;;;5058606;28;20111;-69
2022/03/25 00:04:38;;;;;;;22.50;19.42;;;;;;;;;;5065325;28;20662;-70
2022/03/25 00:07:04;;;;;;;26.08;19.05;;;;;;;;;;5046656;28;20036;-70
2022/03/25 00:09:30;;;;;;;26.55;19.02;;;;;;;;;;5056827;28;20521;-69
2022/03/25 00:11:56;;;;;;;25.27;18.95;;;;;;;;;;5057700;28;20119;-70
2022/03/25 00:14:22;;;;;;;28.92;19.60;;;;;;;;;;5064498;28;20029;-70
2022/03/25 00:16:47;;;;;;;28.42;19.55;;;;;;;;;;5060861;28;20032;-70
2022/03/25 00:19:14;;;;;;;26.17;19.33;;;;;;;;;;5054005;28;20094;-69
2022/03/25 00:21:39;;;;;;;25.48;19.05;;;;;;;;;;5062234;28;20029;-70
2022/03/25 00:24:05;;;;;;;26.27;19.23;;;;;;;;;;5057336;28;20052;-69
2022/03/25 00:26:31;;;;;;;27.33;18.90;;;;;;;;;;5060500;28;20025;-69
2022/03/25 00:28:57;;;;;;;29.60;19.20;;;;;;;;;;5063764;28;20375;-70
2022/03/25 00:31:23;;;;;;;24.67;18.67;;;;;;;;;;5069050;28;20051;-69
2022/03/25 00:33:49;;;;;;;25.58;18.95;;;;;;;;;;5064539;28;20103;-69
2022/03/25 00:36:17;;;;;;;25.23;18.25;;;;;;;;;;5059086;28;20040;-69
2022/03/25 00:38:46;;;;;;;22.58;18.20;;;;;;;;;;5066439;28;20036;-69
2022/03/25 00:41:12;;;;;;;25.08;19.92;;;;;;;;;;5070496;28;20028;-70
2022/03/25 00:43:42;;;;;;;24.45;18.95;;;;;;;;;;5062318;28;20094;-69
2022/03/25 00:46:09;;;;;;;24.13;19.42;;;;;;;;;;5065044;28;20040;-68
2022/03/25 00:48:34;;;;;;;26.33;17.95;;;;;;;;;;5064226;28;20041;-70
2022/03/25 00:51:00;;;;;;;23.80;17.95;;;;;;;;;;5062189;28;20112;-69
2022/03/25 00:53:26;;;;;;;22.23;18.20;;;;;;;;;;5065327;28;20167;-69
2022/03/25 00:55:52;;;;;;;24.05;17.73;;;;;;;;;;5063786;28;20499;-70
2022/03/25 00:58:19;;;;;;;23.48;18.75;;;;;;;;;;5067922;28;20091;-70
2022/03/25 01:00:45;;;;;;;32.75;18.80;;;;;;;;;;5070021;28;20036;-68
2022/03/25 01:03:11;;;;;;;25.67;18.52;;;;;;;;;;5072428;28;20488;-69
2022/03/25 01:05:38;;;;;;;22.55;19.15;;;;;;;;;;5064753;28;20340;-68
2022/03/25 01:08:05;;;;;;;24.05;18.33;;;;;;;;;;5046383;28;20040;-69
2022/03/25 01:10:33;;;;;;;24.98;18.35;;;;;;;;;;5072233;28;20096;-68
2022/03/25 01:12:58;;;;;;;25.05;18.17;;;;;;;;;;5055484;28;20043;-68
2022/03/25 01:15:24;;;;;;;24.45;18.20;;;;;;;;;;5062477;28;20123;-69
2022/03/25 01:17:50;;;;;;;26.60;18.67;;;;;;;;;;5066232;28;20060;-68
2022/03/25 01:20:17;;;;;;;23.05;18.10;;;;;;;;;;5069093;28;20039;-68
2022/03/25 01:22:44;;;;;;;27.17;19.00;;;;;;;;;;5066480;28;20040;-70
2022/03/25 01:25:10;;;;;;;30.45;19.52;;;;;;;;;;5056762;28;20044;-68
2022/03/25 01:27:35;;;;;;;24.08;17.58;;;;;;;;;;5058229;28;20032;-69
2022/03/25 01:30:02;;;;;;;26.98;18.58;;;;;;;;;;5045172;28;20037;-70
2022/03/25 01:32:28;;;;;;;25.95;18.30;;;;;;;;;;5060999;28;20403;-68
2022/03/25 01:34:54;;;;;;;23.73;18.45;;;;;;;;;;5061137;28;20106;-68
2022/03/25 01:37:19;;;;;;;22.17;18.10;;;;;;;;;;5062603;28;20331;-69
2022/03/25 01:39:45;;;;;;;24.27;18.92;;;;;;;;;;5066200;28;20037;-69
2022/03/25 01:42:11;;;;;;;22.88;17.88;;;;;;;;;;5066300;28;20040;-69
2022/03/25 01:44:37;;;;;;;24.65;18.17;;;;;;;;;;5063237;28;20040;-68
2022/03/25 01:47:07;;;;;;;26.13;18.58;;;;;;;;;;5061864;28;20032;-69
2022/03/25 01:49:33;;;;;;;23.95;17.45;;;;;;;;;;5062899;28;20036;-69
2022/03/25 01:52:03;;;;;;;24.23;18.70;;;;;;;;;;5062098;28;20032;-68
2022/03/25 01:54:31;;;;;;;26.08;17.83;;;;;;;;;;5059009;28;20479;-67
2022/03/25 01:56:59;;;;;;;22.27;17.83;;;;;;;;;;5049474;28;20036;-67
2022/03/25 01:59:25;;;;;;;22.65;17.92;;;;;;;;;;5068699;28;20072;-67
2022/03/25 02:01:51;;;;;;;26.80;18.83;;;;;;;;;;5062858;28;20075;-69
2022/03/25 02:04:20;;;;;;;24.73;19.08;;;;;;;;;;5066157;28;20119;-67
2022/03/25 02:06:46;;;;;;;25.67;18.60;;;;;;;;;;5051518;28;20487;-68
2022/03/25 02:09:12;;;;;;;22.90;18.15;;;;;;;;;;5062139;28;20036;-68
2022/03/25 02:11:38;;;;;;;29.92;19.08;;;;;;;;;;5043070;28;20049;-68
2022/03/25 02:14:04;;;;;;;20.10;17.80;;;;;;;;;;5063666;28;20487;-69
2022/03/25 02:16:35;;;;;;;20.90;17.80;;;;;;;;;;5063958;28;20040;-68
2022/03/25 02:19:01;;;;;;;27.75;18.73;;;;;;;;;;5062649;28;20099;-69
2022/03/25 02:21:29;;;;;;;22.80;18.73;;;;;;;;;;5066731;28;20044;-69
2022/03/25 02:23:55;;;;;;;24.98;17.85;;;;;;;;;;5060839;28;20068;-68
2022/03/25 02:26:22;;;;;;;24.27;18.17;;;;;;;;;;5059228;28;20083;-69
2022/03/25 02:28:48;;;;;;;26.08;18.33;;;;;;;;;;5059197;28;20507;-68
2022/03/25 02:31:17;;;;;;;25.65;19.13;;;;;;;;;;5050309;28;20122;-71
2022/03/25 02:33:43;;;;;;;25.58;17.75;;;;;;;;;;5067313;28;20032;-68
2022/03/25 02:36:09;;;;;;;29.67;18.65;;;;;;;;;;5056520;28;20070;-68
2022/03/25 02:38:37;;;;;;;24.05;19.15;;;;;;;;;;5061201;28;20323;-68
2022/03/25 02:41:03;;;;;;;24.75;19.30;;;;;;;;;;5064916;28;20043;-68
2022/03/25 02:43:31;;;;;;;25.67;19.10;;;;;;;;;;5079728;28;20522;-68
2022/03/25 02:46:02;;;;;;;24.00;18.58;;;;;;;;;;5058897;28;20059;-69
2022/03/25 02:48:28;;;;;;;26.40;18.45;;;;;;;;;;5063257;28;20576;-69
2022/03/25 02:50:54;;;;;;;24.02;18.83;;;;;;;;;;5063430;28;20330;-69
2022/03/25 02:53:19;;;;;;;21.63;17.65;;;;;;;;;;5065690;28;20036;-69
2022/03/25 02:55:45;;;;;;;24.67;19.08;;;;;;;;;;5063039;28;20038;-69
2022/03/25 02:58:11;;;;;;;23.05;18.08;;;;;;;;;;5065820;28;20079;-67
2022/03/25 03:00:37;;;;;;;28.20;19.27;;;;;;;;;;5066727;28;20245;-69
2022/03/25 03:03:03;;;;;;;26.15;18.63;;;;;;;;;;5063300;28;20082;-69
2022/03/25 03:05:31;;;;;;;30.20;20.25;;;;;;;;;;5062207;28;20029;-70
2022/03/25 03:07:58;;;;;;;28.20;20.77;;;;;;;;;;5063917;28;20653;-70
2022/03/25 03:10:24;;;;;;;33.42;23.58;;;;;;;;;;5065759;28;20047;-68
2022/03/25 03:12:52;;;;;;;32.55;21.60;;;;;;;;;;5056190;28;20041;-69
2022/03/25 03:15:18;;;;;;;27.92;19.25;;;;;;;;;;5060180;28;20435;-68
2022/03/25 03:17:48;;;;;;;25.20;19.15;;;;;;;;;;5067353;28;20522;-68
2022/03/25 03:20:16;;;;;;;29.95;19.25;;;;;;;;;;5067366;28;20122;-69
2022/03/25 03:22:43;;;;;;;33.67;19.65;;;;;;;;;;5055715;28;20033;-67
2022/03/25 03:25:10;;;;;;;27.23;19.27;;;;;;;;;;5056733;28;20033;-69
2022/03/25 03:27:37;;;;;;;25.67;18.70;;;;;;;;;;5066735;28;20079;-68
2022/03/25 03:30:05;;;;;;;24.85;19.05;;;;;;;;;;5063048;28;20095;-69
2022/03/25 03:32:30;;;;;;;25.48;20.38;;;;;;;;;;5047340;28;20032;-67
2022/03/25 03:34:56;;;;;;;26.95;19.13;;;;;;;;;;5049223;28;20095;-68
2022/03/25 03:37:22;;;;;;;26.70;19.63;;;;;;;;;;5064763;28;20067;-69
2022/03/25 03:39:49;;;;;;;25.27;19.05;;;;;;;;;;5063464;28;20688;-69
2022/03/25 03:42:15;;;;;;;23.15;18.15;;;;;;;;;;5067780;28;20036;-67
2022/03/25 03:44:41;;;;;;;23.60;19.20;;;;;;;;;;5055134;28;20033;-69
2022/03/25 03:47:08;;;;;;;25.88;18.67;;;;;;;;;;5054222;28;20314;-71
2022/03/25 03:49:35;;;;;;;27.75;18.98;;;;;;;;;;5066052;28;20052;-71
2022/03/25 03:52:01;;;;;;;26.35;18.17;;;;;;;;;;5067796;28;20025;-70
2022/03/25 03:54:27;;;;;;;23.63;17.88;;;;;;;;;;5060509;28;20040;-68
2022/03/25 03:57:11;;;;;;;24.30;18.60;;;;;;;;;;5055587;28;20036;-69
2022/03/25 03:59:37;;;;;;;25.20;19.65;;;;;;;;;;5064708;28;20040;-70
2022/03/25 04:02:03;;;;;;;23.55;18.25;;;;;;;;;;5066743;28;20050;-70
2022/03/25 04:04:29;;;;;;;26.25;18.95;;;;;;;;;;5076427;28;20036;-71
2022/03/25 04:06:54;;;;;;;25.60;19.55;;;;;;;;;;5058951;28;20082;-71
2022/03/25 04:09:20;;;;;;;23.48;18.17;;;;;;;;;;5064796;28;20458;-70
2022/03/25 04:11:46;;;;;;;26.90;19.20;;;;;;;;;;5068336;28;20040;-68
2022/03/25 04:14:12;;;;;;;23.63;18.63;;;;;;;;;;5072635;28;20258;-69
2022/03/25 04:16:37;;;;;;;26.98;18.63;;;;;;;;;;5060124;28;20367;-71
2022/03/25 04:19:03;;;;;;;26.77;19.25;;;;;;;;;;5066887;28;20033;-69
2022/03/25 04:21:29;;;;;;;25.02;18.73;;;;;;;;;;5067697;28;20040;-70
2022/03/25 04:23:54;;;;;;;22.42;18.15;;;;;;;;;;5058763;28;20033;-69
2022/03/25 04:26:20;;;;;;;23.85;19.10;;;;;;;;;;5064361;28;20032;-68
2022/03/25 04:28:46;;;;;;;24.33;19.08;;;;;;;;;;5067358;28;20479;-69
2022/03/25 04:31:11;;;;;;;26.48;18.92;;;;;;;;;;5067103;28;20100;-70
2022/03/25 04:33:37;;;;;;;24.00;18.27;;;;;;;;;;5055578;28;20039;-69
2022/03/25 04:36:03;;;;;;;26.38;19.15;;;;;;;;;;5061686;28;20060;-68
2022/03/25 04:38:29;;;;;;;25.58;18.23;;;;;;;;;;5067529;28;20321;-69
2022/03/25 04:40:55;;;;;;;26.30;18.65;;;;;;;;;;5060315;28;20506;-70
2022/03/25 04:43:20;;;;;;;24.42;18.08;;;;;;;;;;5056286;28;20044;-70
2022/03/25 04:45:46;;;;;;;20.85;17.90;;;;;;;;;;5066336;28;20090;-70
2022/03/25 04:48:12;;;;;;;24.73;19.08;;;;;;;;;;5067760;28;20032;-70
2022/03/25 04:50:39;;;;;;;28.17;18.95;;;;;;;;;;5063083;28;20454;-70
2022/03/25 04:53:06;;;;;;;23.80;18.65;;;;;;;;;;5057308;28;20127;-70
2022/03/25 04:55:32;;;;;;;28.67;18.92;;;;;;;;;;5053854;28;20158;-70
2022/03/25 04:57:58;;;;;;;26.17;17.85;;;;;;;;;;5063622;28;20025;-69
2022/03/25 05:00:23;;;;;;;27.10;18.90;;;;;;;;;;5054628;28;20118;-69
2022/03/25 05:02:49;;;;;;;25.52;19.67;;;;;;;;;;5063803;28;20048;-69
2022/03/25 05:05:15;;;;;;;22.95;17.70;;;;;;;;;;5066726;28;20521;-69
2022/03/25 05:07:43;;;;;;;25.48;18.65;;;;;;;;;;5057107;28;20040;-70
2022/03/25 05:10:11;;;;;;;25.60;19.20;;;;;;;;;;5060033;28;20032;-70
2022/03/25 05:12:38;;;;;;;23.33;18.83;;;;;;;;;;5069337;28;20127;-70
2022/03/25 05:15:04;;;;;;;27.73;18.52;;;;;;;;;;5066092;28;20399;-69
2022/03/25 05:17:30;;;;;;;22.95;18.95;;;;;;;;;;5059819;28;20504;-69
2022/03/25 05:19:56;;;;;;;23.38;18.13;;;;;;;;;;5064375;28;20472;-70
2022/03/25 05:22:22;;;;;;;24.80;18.38;;;;;;;;;;5067475;28;20036;-71
2022/03/25 05:24:48;;;;;;;25.95;19.58;;;;;;;;;;5067096;28;20028;-69
2022/03/25 05:27:14;;;;;;;23.73;19.20;;;;;;;;;;5066261;28;20116;-70
2022/03/25 05:29:39;;;;;;;34.63;18.40;;;;;;;;;;5066583;28;20123;-69
2022/03/25 05:32:05;;;;;;;26.60;17.95;;;;;;;;;;5061329;28;20098;-69
2022/03/25 05:34:31;;;;;;;23.63;18.67;;;;;;;;;;5062293;28;20044;-70
2022/03/25 05:36:57;;;;;;;24.45;18.60;;;;;;;;;;5057719;28;20419;-70
2022/03/25 05:39:22;;;;;;;24.27;19.20;;;;;;;;;;5056128;28;20036;-70
2022/03/25 05:41:48;;;;;;;34.42;19.50;;;;;;;;;;5060429;28;20032;-70
2022/03/25 05:44:13;;;;;;;26.08;20.58;;;;;;;;;;5069693;28;20101;-70
2022/03/25 05:46:39;;;;;;;26.13;20.42;;;;;;;;;;5062434;28;20429;-70
2022/03/25 05:49:05;;;;;;;24.33;18.98;;;;;;;;;;5061987;28;20306;-69
2022/03/25 05:51:31;;;;;;;26.58;18.40;;;;;;;;;;5066722;28;20522;-69
2022/03/25 05:53:57;;;;;;;26.10;19.35;;;;;;;;;;5065042;28;20111;-69
2022/03/25 05:56:22;;;;;;;23.92;18.67;;;;;;;;;;5062727;28;20119;-70
2022/03/25 05:58:48;;;;;;;25.27;19.45;;;;;;;;;;5066916;28;20072;-70
2022/03/25 06:01:13;;;;;;;24.15;18.42;;;;;;;;;;5064449;28;20032;-70
2022/03/25 06:03:39;;;;;;;27.17;19.77;;;;;;;;;;5069481;28;20115;-70
2022/03/25 06:06:05;;;;;;;24.77;18.95;;;;;;;;;;5063394;28;20539;-71
2022/03/25 06:08:31;;;;;;;25.33;20.38;;;;;;;;;;5063196;28;20545;-70
2022/03/25 06:10:59;;;;;;;25.30;19.33;;;;;;;;;;5064229;28;20147;-70
2022/03/25 06:13:26;;;;;;;24.20;18.77;;;;;;;;;;5065134;28;20496;-70
2022/03/25 06:15:52;;;;;;;22.40;18.30;;;;;;;;;;5060144;28;20029;-69
2022/03/25 06:18:18;;;;;;;28.52;19.67;;;;;;;;;;5067749;28;20510;-69
2022/03/25 06:20:44;;;;;;;28.38;19.25;;;;;;;;;;5068426;28;20033;-71
2022/03/25 06:23:09;;;;;;;24.40;19.23;;;;;;;;;;5063128;28;20036;-68
2022/03/25 06:25:35;;;;;;;26.02;19.30;;;;;;;;;;5061717;28;20037;-69
2022/03/25 06:28:04;;;;;;;22.27;18.90;;;;;;;;;;5064138;28;20526;-70
2022/03/25 06:30:37;;;;;;;25.52;19.30;;;;;;;;;;5064984;28;20032;-69
2022/03/25 06:33:04;;;;;;;26.75;19.58;;;;;;;;;;5064247;28;20046;-70
2022/03/25 06:35:30;;;;;;;81.20;36.40;;;;;;;;;;5060918;28;20032;-69
2022/03/25 06:37:56;;;;;;;67.10;30.45;;;;;;;;;;5068458;28;20036;-70
2022/03/25 06:40:23;;;;;;;79.13;32.75;;;;;;;;;;5067961;28;20531;-70
2022/03/25 06:42:49;;;;;;;34.00;22.02;;;;;;;;;;5060415;28;20040;-70
2022/03/25 06:45:16;;;;;;;28.88;21.23;;;;;;;;;;5058127;28;20225;-70
2022/03/25 06:47:43;;;;;;;37.08;23.90;;;;;;;;;;5068190;28;20071;-69
2022/03/25 06:50:10;;;;;;;30.67;21.60;;;;;;;;;;5059294;28;20126;-69
2022/03/25 06:52:36;;;;;;;26.38;20.35;;;;;;;;;;5064682;28;20060;-69
2022/03/25 06:55:03;;;;;;;28.40;21.88;;;;;;;;;;5056686;28;20032;-69
2022/03/25 06:57:29;;;;;;;28.40;21.75;;;;;;;;;;5060681;28;20590;-69
2022/03/25 06:59:55;;;;;;;27.88;20.35;;;;;;;;;;5068842;28;20181;-70
2022/03/25 07:02:21;;;;;;;28.45;20.92;;;;;;;;;;5068251;28;20123;-69
2022/03/25 07:04:47;;;;;;;29.98;21.63;;;;;;;;;;5066158;28;20174;-70
2022/03/25 07:07:14;;;;;;;29.40;21.42;;;;;;;;;;5064939;28;20032;-69
2022/03/25 07:09:40;;;;;;;24.88;20.65;;;;;;;;;;5068470;28;20086;-70
2022/03/25 07:12:06;;;;;;;30.33;22.45;;;;;;;;;;5067929;28;20111;-71
2022/03/25 07:14:32;;;;;;;26.40;21.20;;;;;;;;;;5061028;28;20052;-69
2022/03/25 07:16:57;;;;;;;28.58;22.33;;;;;;;;;;5067986;28;20101;-70
2022/03/25 07:19:25;;;;;;;29.45;21.58;;;;;;;;;;5067361;28;20416;-70
2022/03/25 07:21:52;;;;;;;32.17;23.17;;;;;;;;;;5061500;28;20063;-70
2022/03/25 07:24:18;;;;;;;28.58;21.75;;;;;;;;;;5056797;28;20040;-70
2022/03/25 07:26:44;;;;;;;28.95;21.67;;;;;;;;;;5061940;28;20458;-70
2022/03/25 07:29:11;;;;;;;27.92;22.20;;;;;;;;;;5066802;28;20033;-71
2022/03/25 07:31:37;;;;;;;26.30;22.30;;;;;;;;;;5057357;28;20060;-71
2022/03/25 07:34:03;;;;;;;25.88;21.83;;;;;;;;;;5061298;28;20411;-70
2022/03/25 07:36:28;;;;;;;25.05;22.35;;;;;;;;;;5054888;28;20039;-70
2022/03/25 07:38:54;;;;;;;28.58;22.92;;;;;;;;;;5066893;28;20078;-70
2022/03/25 07:41:20;;;;;;;26.73;22.85;;;;;;;;;;5066684;28;20072;-69
2022/03/25 07:43:45;;;;;;;25.90;23.05;;;;;;;;;;5064344;28;20479;-69
2022/03/25 07:46:13;;;;;;;32.25;23.00;;;;;;;;;;5063285;28;20058;-69
2022/03/25 07:48:39;;;;;;;27.33;23.88;;;;;;;;;;5066676;28;20036;-70
2022/03/25 07:51:05;;;;;;;28.35;23.38;;;;;;;;;;5064914;28;20072;-70
2022/03/25 07:53:33;;;;;;;28.75;23.10;;;;;;;;;;5057330;28;20068;-70
2022/03/25 07:55:59;;;;;;;27.53;23.53;;;;;;;;;;5058978;28;20032;-70
2022/03/25 07:58:25;;;;;;;29.80;23.73;;;;;;;;;;5068535;28;20039;-70
2022/03/25 08:00:52;;;;;;;29.08;24.42;;;;;;;;;;5061586;28;20496;-70
2022/03/25 08:03:18;;;;;;;30.05;24.13;;;;;;;;;;5052748;28;20044;-70
2022/03/25 08:05:47;;;;;;;36.78;29.83;;;;;;;;;;5064361;28;20032;-70
2022/03/25 08:08:13;;;;;;;30.30;26.00;;;;;;;;;;5067926;28;20398;-70
2022/03/25 08:10:39;;;;;;;32.13;26.33;;;;;;;;;;5059912;28;20020;-70
2022/03/25 08:13:07;;;;;;;36.30;27.88;;;;;;;;;;5052677;28;20032;-70
2022/03/25 08:15:34;;;;;;;30.17;26.00;;;;;;;;;;5057109;28;20033;-70
2022/03/25 08:18:02;;;;;;;39.63;30.35;;;;;;;;;;5063913;28;20040;-70
2022/03/25 08:20:37;;;;;;;31.17;25.30;;;;;;;;;;5064792;28;20036;-70
2022/03/25 08:23:04;;;;;;;47.47;30.58;;;;;;;;;;5060537;28;20033;-70
2022/03/25 08:28:16;;;;;;;30.42;26.33;;;;;;;;;;5059446;28;20059;-70
2022/03/25 08:30:43;;;;;;;199.88;88.88;;;;;;;;;;5056962;28;20059;-70
2022/03/25 08:33:10;;;;;;;30.20;25.75;;;;;;;;;;5055371;28;20121;-70
2022/03/25 08:35:38;;;;;;;35.17;25.05;;;;;;;;;;5063176;28;20028;-70
2022/03/25 08:38:05;;;;;;;34.20;25.48;;;;;;;;;;5056728;28;20171;-69
2022/03/25 08:40:34;;;;;;;36.28;25.60;;;;;;;;;;5056498;28;20103;-70
2022/03/25 08:43:04;;;;;;;35.05;25.33;;;;;;;;;;5064576;28;20037;-70
2022/03/25 08:45:31;;;;;;;31.83;25.42;;;;;;;;;;5057201;28;20561;-70
2022/03/25 08:47:57;;;;;;;31.52;24.58;;;;;;;;;;5068212;28;20040;-69
2022/03/25 08:50:24;;;;;;;29.23;25.20;;;;;;;;;;5060282;28;20484;-70
2022/03/25 08:52:51;;;;;;;37.28;28.58;;;;;;;;;;5066932;28;20093;-70
2022/03/25 08:55:18;;;;;;;30.45;25.67;;;;;;;;;;5062373;28;20029;-70
2022/03/25 08:57:45;;;;;;;29.35;23.98;;;;;;;;;;5061651;28;20060;-69
2022/03/25 09:00:14;;;;;;;34.95;26.35;;;;;;;;;;5062472;28;20053;-70
2022/03/25 09:02:42;;;;;;;37.60;29.90;;;;;;;;;;5072692;28;20039;-70
2022/03/25 09:05:08;;;;;;;32.13;25.33;;;;;;;;;;5064729;28;20036;-70
2022/03/25 09:07:34;;;;;;;30.77;25.33;;;;;;;;;;5060428;28;20063;-71
2022/03/25 09:10:00;;;;;;;29.70;24.52;;;;;;;;;;5073923;28;20502;-71
2022/03/25 09:12:26;;;;;;;30.83;25.02;;;;;;;;;;5074730;28;20043;-70
2022/03/25 09:14:51;;;;;;;33.67;28.20;;;;;;;;;;5066980;28;20043;-70
2022/03/25 09:17:17;;;;;;;30.75;25.60;;;;;;;;;;5048400;28;20052;-69
2022/03/25 09:19:43;;;;;;;36.33;28.60;;;;;;;;;;5073663;28;20036;-70
2022/03/25 09:22:09;;;;;;;34.72;26.50;;;;;;;;;;5072148;28;20041;-70
2022/03/25 09:24:35;;;;;;;33.67;25.65;;;;;;;;;;5062587;28;20535;-69
2022/03/25 09:27:01;;;;;;;31.63;26.23;;;;;;;;;;5064044;28;20060;-70
2022/03/25 09:29:26;;;;;;;39.40;26.60;;;;;;;;;;5072583;28;20036;-70
2022/03/25 09:31:52;;;;;;;32.33;25.75;;;;;;;;;;5069768;28;20052;-70
2022/03/25 09:37:02;;;;;;;32.33;26.40;;;;;;;;;;5062164;28;20078;-70
2022/03/25 09:39:28;;;;;;;37.40;26.63;;;;;;;;;;5069800;28;20044;-70
2022/03/25 09:41:54;;;;;;;34.70;27.40;;;;;;;;;;5066454;28;20032;-70
2022/03/25 09:44:19;;;;;;;32.10;27.65;;;;;;;;;;5073964;28;20099;-70
2022/03/25 09:46:45;;;;;;;33.80;25.80;;;;;;;;;;5064978;28;20068;-70
2022/03/25 09:49:12;;;;;;;33.45;26.40;;;;;;;;;;5059610;28;20056;-71
2022/03/25 09:51:40;;;;;;;35.65;26.30;;;;;;;;;;5070210;28;20652;-71
2022/03/25 09:54:08;;;;;;;34.92;27.80;;;;;;;;;;5059888;28;20483;-70
2022/03/25 09:56:34;;;;;;;41.13;27.60;;;;;;;;;;5058154;28;20399;-70
2022/03/25 09:59:00;;;;;;;41.60;27.70;;;;;;;;;;5068496;28;20037;-69
2022/03/25 10:01:26;;;;;;;35.15;27.88;;;;;;;;;;5069930;28;20302;-70
2022/03/25 10:03:52;;;;;;;38.00;27.65;;;;;;;;;;5067127;28;20036;-70
2022/03/25 10:06:18;;;;;;;39.15;29.42;;;;;;;;;;5062263;28;20036;-69
2022/03/25 10:08:58;;;;;;;40.03;28.63;;;;;;;;;;5069680;28;20044;-70
2022/03/25 10:11:25;;;;;;;37.13;28.25;;;;;;;;;;5068504;28;20037;-70
2022/03/25 10:14:18;;;;;;;34.22;27.58;;;;;;;;;;5039892;28;20045;-70
2022/03/25 10:16:49;;;;;;;34.78;26.50;;;;;;;;;;5065126;28;20035;-69
2022/03/25 10:19:22;;;;;;;35.75;27.58;;;;;;;;;;5069854;28;20044;-69
2022/03/25 10:22:00;;;;;;;36.95;29.40;;;;;;;;;;5056344;28;20036;-70
2022/03/25 10:24:39;;;;;;;38.00;28.38;;;;;;;;;;5061599;28;20520;-69
2022/03/25 10:27:05;;;;;;;;;;;;;;;;;;5065106;28;20044;-70
2022/03/25 10:29:31;;;;;;;39.35;29.38;;;;;;;;;;5066010;28;19916;-70
2022/03/25 10:32:02;;;;;;;37.28;28.73;;;;;;;;;;5058091;28;20044;-70
2022/03/25 10:34:28;;;;;;;40.85;29.15;;;;;;;;;;5062882;28;20032;-69
2022/03/25 10:37:11;;;;;;;42.33;29.33;;;;;;;;;;5069527;28;20081;-70
2022/03/25 10:39:38;;;;;;;40.70;30.25;;;;;;;;;;5060810;28;20035;-70
2022/03/25 10:42:06;;;;;;;40.65;29.05;;;;;;;;;;5068502;28;20047;-69
2022/03/25 10:44:42;;;;;;;36.28;28.85;;;;;;;;;;5069178;28;20040;-69
2022/03/25 10:47:17;;;;;;;38.70;27.73;;;;;;;;;;5060636;28;20411;-70
2022/03/25 10:49:46;;;;;;;38.35;29.20;;;;;;;;;;5066327;28;20051;-70
2022/03/25 10:52:31;;;;;;;39.58;30.10;;;;;;;;;;5069649;28;20037;-70
2022/03/25 10:55:16;;;;;;;34.83;27.95;;;;;;;;;;5043867;28;20127;-70
2022/03/25 10:57:52;;;;;;;46.08;31.13;;;;;;;;;;5060914;28;20328;-70
2022/03/25 11:00:18;;;;;;;39.00;29.63;;;;;;;;;;5064983;28;20067;-70
2022/03/25 11:02:45;;;;;;;39.63;28.92;;;;;;;;;;5068975;28;20063;-71
2022/03/25 11:05:14;;;;;;;38.63;28.27;;;;;;;;;;5064654;28;20091;-70
2022/03/25 11:07:45;;;;;;;35.80;29.58;;;;;;;;;;5062043;28;20044;-71
2022/03/25 11:10:13;;;;;;;42.00;28.85;;;;;;;;;;5051851;28;20046;-70
2022/03/25 11:12:53;;;;;;;37.38;28.73;;;;;;;;;;5069745;28;20565;-71
2022/03/25 11:15:20;;;;;;;38.03;28.95;;;;;;;;;;5057972;28;20083;-70
2022/03/25 11:17:46;;;;;;;38.42;29.40;;;;;;;;;;5069882;28;20113;-69
2022/03/25 11:20:14;;;;;;;36.63;30.15;;;;;;;;;;5070794;28;20032;-71
2022/03/25 11:22:49;;;;;;;38.60;30.00;;;;;;;;;;5065220;28;20025;-70
2022/03/25 11:25:18;;;;;;;35.38;29.13;;;;;;;;;;5067372;28;20491;-70
2022/03/25 11:27:53;;;;;;;37.08;29.80;;;;;;;;;;5065292;28;20441;-70
2022/03/25 11:30:19;;;;;;;35.58;28.33;;;;;;;;;;5065564;28;20033;-71
2022/03/25 11:32:57;;;;;;;34.30;26.90;;;;;;;;;;5056485;28;20028;-71
2022/03/25 11:35:24;;;;;;;32.53;27.17;;;;;;;;;;5064717;28;20056;-70
2022/03/25 11:38:09;;;;;;;34.65;27.50;;;;;;;;;;5070772;28;20094;-71
2022/03/25 11:40:36;;;;;;;32.38;26.23;;;;;;;;;;5064364;28;20433;-70
2022/03/25 11:43:19;;;;;;;35.53;26.50;;;;;;;;;;5059405;28;20060;-69
2022/03/25 11:46:00;;;;;;;33.00;26.40;;;;;;;;;;5066002;28;20119;-70
2022/03/25 11:48:26;;;;;;;32.75;27.15;;;;;;;;;;5067614;28;20115;-70
2022/03/25 11:50:56;;;;;;;34.65;27.92;;;;;;;;;;5061012;28;20124;-71
2022/03/25 11:53:22;;;;;;;34.55;28.55;;;;;;;;;;5057490;28;20037;-70
2022/03/25 11:56:07;;;;;;;33.20;27.65;;;;;;;;;;5060547;28;20028;-71
2022/03/25 11:58:36;;;;;;;33.67;28.00;;;;;;;;;;5053204;28;20087;-70
2022/03/25 12:01:24;;;;;;;31.45;27.70;;;;;;;;;;5064508;28;20045;-71
2022/03/25 12:03:52;;;;;;;;;;;;;;;;;;5068435;28;20040;-70
2022/03/25 12:06:22;;;;;;;35.85;29.38;;;;;;;;;;5057699;28;19921;-70
2022/03/25 12:09:03;;;;;;;36.08;29.80;;;;;;;;;;5063099;28;20070;-71
2022/03/25 12:11:47;;;;;;;32.15;27.65;;;;;;;;;;5068096;28;20086;-71
2022/03/25 12:14:13;;;;;;;31.55;27.75;;;;;;;;;;5066176;28;20077;-70
2022/03/25 12:16:52;;;;;;;33.97;29.25;;;;;;;;;;5064437;28;20120;-70
2022/03/25 12:19:27;;;;;;;31.25;26.30;;;;;;;;;;5059739;28;20174;-70
2022/03/25 12:22:18;;;;;;;31.63;27.25;;;;;;;;;;5071373;28;20479;-71
2022/03/25 12:24:55;;;;;;;31.70;28.35;;;;;;;;;;5055232;28;20044;-70
2022/03/25 12:27:21;;;;;;;30.63;27.30;;;;;;;;;;5067215;28;20408;-71
2022/03/25 12:29:50;;;;;;;33.20;28.15;;;;;;;;;;5069762;28;20044;-72
2022/03/25 12:32:20;;;;;;;31.88;26.45;;;;;;;;;;5063166;28;20514;-71
2022/03/25 12:35:05;;;;;;;29.70;26.60;;;;;;;;;;5058917;28;20032;-70
2022/03/25 12:37:40;;;;;;;31.05;27.65;;;;;;;;;;5069950;28;20074;-70
2022/03/25 12:40:16;;;;;;;30.40;27.17;;;;;;;;;;5044953;28;20230;-70
2022/03/25 12:42:43;;;;;;;35.83;27.58;;;;;;;;;;5062137;28;20037;-70
2022/03/25 12:45:10;;;;;;;30.50;26.58;;;;;;;;;;5071108;28;20036;-71
2022/03/25 12:47:37;;;;;;;27.88;24.98;;;;;;;;;;5071454;28;20542;-71
2022/03/25 12:50:05;;;;;;;27.67;24.85;;;;;;;;;;5073819;22;20029;-70
2022/03/25 12:52:31;;;;;;;29.80;26.40;;;;;;;;;;5020783;28;20041;-70
2022/03/25 12:55:17;;;;;;;27.92;25.13;;;;;;;;;;5033870;28;20022;-71
2022/03/25 12:57:45;;;;;;;28.25;24.90;;;;;;;;;;5029315;28;20033;-71
2022/03/25 13:00:12;;;;;;;30.40;26.08;;;;;;;;;;5024990;28;20041;-72
2022/03/25 13:02:39;;;;;;;29.20;26.30;;;;;;;;;;5032198;28;20450;-72
2022/03/25 13:05:14;;;;;;;27.40;24.70;;;;;;;;;;5032982;28;20293;-72
2022/03/25 13:07:43;;;;;;;30.00;26.85;;;;;;;;;;5050029;28;20110;-72
2022/03/25 13:10:10;;;;;;;32.28;28.88;;;;;;;;;;5038049;28;20037;-72
2022/03/25 13:12:38;;;;;;;32.35;28.95;;;;;;;;;;5033280;28;20038;-72
2022/03/25 13:15:06;;;;;;;32.03;28.58;;;;;;;;;;5030099;28;20056;-72
2022/03/25 13:17:41;;;;;;;31.42;27.52;;;;;;;;;;5026544;28;20458;-72
2022/03/25 13:20:18;;;;;;;32.20;27.25;;;;;;;;;;5033128;28;20535;-72
2022/03/25 13:22:56;;;;;;;31.98;28.10;;;;;;;;;;5030251;28;20038;-73
2022/03/25 13:25:42;;;;;;;34.88;27.13;;;;;;;;;;5024947;28;20520;-72
2022/03/25 13:28:14;;;;;;;31.73;27.27;;;;;;;;;;5028571;28;20796;-72
2022/03/25 13:30:46;;;;;;;31.20;27.77;;;;;;;;;;5027631;28;20099;-72
2022/03/25 13:33:14;;;;;;;30.45;27.15;;;;;;;;;;5029298;28;20060;-72
2022/03/25 13:35:46;;;;;;;30.80;27.52;;;;;;;;;;5026267;28;20041;-70
2022/03/25 13:38:15;;;;;;;29.90;26.38;;;;;;;;;;5027164;28;20061;-72
2022/03/25 13:40:46;;;;;;;32.50;29.00;;;;;;;;;;5010765;28;20110;-72
2022/03/25 13:43:12;;;;;;;39.00;29.33;;;;;;;;;;5027680;28;20412;-72
2022/03/25 13:45:39;;;;;;;31.05;27.83;;;;;;;;;;5025449;28;20026;-72
2022/03/25 13:48:15;;;;;;;34.28;29.27;;;;;;;;;;5034841;28;20036;-72
2022/03/25 13:50:49;;;;;;;37.20;30.20;;;;;;;;;;5028533;28;20418;-71
2022/03/25 13:53:20;;;;;;;32.15;28.65;;;;;;;;;;5021961;28;20029;-72
2022/03/25 13:55:45;;;;;;;32.90;29.52;;;;;;;;;;5029185;28;20029;-71
2022/03/25 13:58:19;;;;;;;31.85;28.25;;;;;;;;;;5027995;28;20033;-71
2022/03/25 14:00:52;;;;;;;31.20;26.75;;;;;;;;;;5002574;28;20124;-72
2022/03/25 14:03:27;;;;;;;32.15;27.98;;;;;;;;;;5025217;28;20137;-72
2022/03/25 14:05:53;;;;;;;31.52;28.17;;;;;;;;;;5027998;28;20110;-72
2022/03/25 14:08:32;;;;;;;33.70;28.45;;;;;;;;;;5021869;28;20199;-72
2022/03/25 14:10:59;;;;;;;31.02;27.73;;;;;;;;;;5028766;28;20033;-72
2022/03/25 14:13:26;;;;;;;32.70;28.05;;;;;;;;;;5027772;28;20116;-72
2022/03/25 14:15:51;;;;;;;30.98;27.55;;;;;;;;;;5026990;28;20041;-72
2022/03/25 14:18:21;;;;;;;30.75;26.90;;;;;;;;;;5008781;28;20099;-72
2022/03/25 14:20:47;;;;;;;31.55;27.52;;;;;;;;;;5027414;28;20107;-72
2022/03/25 14:23:18;;;;;;;30.15;26.95;;;;;;;;;;5027550;28;20064;-72
2022/03/25 14:25:44;;;;;;;29.83;26.63;;;;;;;;;;5027162;28;20030;-72
2022/03/25 14:28:10;;;;;;;29.15;26.02;;;;;;;;;;5027553;28;20040;-72
2022/03/25 14:30:39;;;;;;;32.13;26.80;;;;;;;;;;5027039;28;20044;-72